Cannon Air Force Base
KCVS : now visible

Airfield :











YOU CAN JOIN US ON...

 
LOGIN :

Register | Disclaimer

   EN    FR    IT 

 









Legend :    VFR   Marginal VFR   IFR   Intensive IFR   Very Intensive IFR
Visi :
Ceiling :
>= 8 km
>= 3000ft
5 to 8 km
1000 to 3000 ft
1500m to 5 km
500 to 1000 ft
800 to 1500m
200 to 500 ft
< 800m
< 200 ft
Symbols :   Thunderstorms  Fog  Heavy snow  Heavy precipitations  Wind > 20 kt






- Airport Elevation : 4295 ft


KCVS - Cannon Air Force Base

CURRENT METAR :
  • 141255Z 14005KT 10SM CLR 22/18 A3012 RMK AO2A SLPNO T02190175 $

EXPIRED METARs :
  • 141155Z 00000KT 10SM SCT160 20/17 A3010 RMK AO2A SLPNO T01950167 10213 20192 52013 $
  • 141125Z 12004KT 10SM BKN160 19/17 A3009 RMK AO2A SLPNO $
  • 141055Z 10008KT 10SM R13/4500FT SCT170 20/17 A3009 RMK AO2A SLPNO T01980166 $
  • 140955Z 11009KT 10SM R13/4500FT CLR 20/17 A3007 RMK AO2A SLP109 T02020168 $
  • 140900Z 13007KT 10SM R13/4500FT CLR 21/17 A3006 RMK AO2A PRESRR SLPNO $

TAF TAF KCVS
Valid from the 14 at 10:00 until the 15 at 16:00 UTC


141000Z 1410/1516 VRB06KT 9999 SKC QNH3002INS
BECMG 1414/1415 19010G25KT 9999 SCT120 QNH3003INS
BECMG 1418/1419 14015G30KT 9999 BKN120 QNH2997INS
BECMG 1500/1501 14012KT 8000 -SHRA BKN060 QNH2995INS
TEMPO 1501/1505 VRB20G30KT 6000 -TSRA BKN040CB
BECMG 1505/1506 VRB06KT 9999 NSW SCT100 QNH2997INS TX37/1422Z TN18/1510Z
KZAB FIR / North America



MET'MAP, your aeronautical weather chart ! - Copyright ORBIFLY December 2007 - Disclaimer

ORBIFLY MET'MAP TEAM :

Programming & Development : Alexandra Zaïnal
Original concept : Baudouin d'Aumeries
Technical & hardware support : Manuel Goepfert
Assistance : Marc-Olivier Méhu




SOURCES & CREDITS :

   NOAA       Earth
Advisory